Archival Weather

Sydney Intl

Sydney, Australia (YSSY)

Report from: Wednesday, May 22, 2024 3:00 AM AEST
Current time: Saturday, June 22, 2024 8:25 PM AEST

Current weather – Weather history – Daily summaries
Weather forecast

Temperature10.0°C (50.0°F)
Wind chill8.5°C (47.2°F)
Dew point8.0°C (46.4°F)
Winds 6 kts (3.1 m/s, 6.9 mph) Northwest (310°)
Visibility6.2 mi. (10 km)
Clouds Sky clear
Altimeter30.27 in.Hg (1025 mB)
Relative humidity87 %
Density altitude-842 ft. (-257 m)
Remarks Fully automated report
No clouds detected
Flight conditions Visual Meteorological Conditions
Raw dataYSSY 211700Z AUTO 31006KT 9999 // NCD 10/08 Q1025 RF00.0/000.2
An error has occurred. This application may no longer respond until reloaded. Reload 🗙